createdAt,value
2017-10-17T00:00:56.855Z,10.90
2017-10-17T00:03:24.984Z,10.90
2017-10-17T00:05:53.132Z,10.90
2017-10-17T00:08:21.261Z,10.80
2017-10-17T00:10:49.399Z,10.80
2017-10-17T00:13:17.523Z,10.80
2017-10-17T00:15:45.660Z,10.80
2017-10-17T00:18:13.786Z,10.80
2017-10-17T00:20:41.921Z,10.70
2017-10-17T00:23:10.058Z,10.80
2017-10-17T00:25:38.191Z,10.70
2017-10-17T00:28:06.337Z,10.70
2017-10-17T00:30:36.116Z,10.70
2017-10-17T00:33:07.516Z,10.70
2017-10-17T00:35:49.121Z,10.60
2017-10-17T00:38:17.264Z,10.60
2017-10-17T00:40:46.245Z,10.60
2017-10-17T00:43:15.152Z,10.60
2017-10-17T00:45:43.894Z,10.60
2017-10-17T00:48:18.450Z,10.50
2017-10-17T00:50:49.128Z,10.50
2017-10-17T00:53:18.033Z,10.50
2017-10-17T00:55:46.176Z,10.50
2017-10-17T00:58:14.304Z,10.50
2017-10-17T01:00:44.126Z,10.50
2017-10-17T01:03:12.246Z,10.50
2017-10-17T01:05:40.377Z,10.50
2017-10-17T01:08:08.500Z,10.40
2017-10-17T01:10:36.636Z,10.50
2017-10-17T01:13:04.756Z,10.40
2017-10-17T01:15:33.155Z,10.40
2017-10-17T01:18:02.036Z,10.40
2017-10-17T01:20:30.917Z,10.30
2017-10-17T01:23:02.678Z,10.30
2017-10-17T01:25:31.557Z,10.20
2017-10-17T01:30:49.598Z,10.20
2017-10-17T01:33:17.838Z,10.20
2017-10-17T01:35:46.711Z,10.10
2017-10-17T01:41:07.386Z,10.10
2017-10-17T01:43:36.230Z,10.10
2017-10-17T01:46:05.049Z,10.10
2017-10-17T01:48:34.996Z,10.10
2017-10-17T01:51:05.694Z,10.00
2017-10-17T01:53:33.856Z,10.10
2017-10-17T01:56:01.989Z,10.00
2017-10-17T01:58:30.879Z,10.00
2017-10-17T02:01:02.466Z,9.90
2017-10-17T02:03:30.851Z,9.90
2017-10-17T02:05:58.968Z,9.90
2017-10-17T02:08:27.866Z,9.90
2017-10-17T02:10:56.752Z,9.80
2017-10-17T02:13:25.660Z,9.80
2017-10-17T02:15:54.571Z,9.80
2017-10-17T02:18:27.291Z,9.80
2017-10-17T02:20:58.091Z,9.80
2017-10-17T02:23:27.062Z,9.80
2017-10-17T02:26:00.769Z,9.70
2017-10-17T02:28:42.363Z,9.70
2017-10-17T02:31:10.492Z,9.70
2017-10-17T02:33:41.411Z,9.70
2017-10-17T02:36:09.607Z,9.70
2017-10-17T02:38:37.704Z,9.70
2017-10-17T02:41:05.870Z,9.70
2017-10-17T02:43:34.878Z,9.60
2017-10-17T02:46:03.005Z,9.70
2017-10-17T02:51:26.507Z,9.60
2017-10-17T02:53:55.398Z,9.60
2017-10-17T02:56:24.363Z,9.50
2017-10-17T02:58:52.492Z,9.50
2017-10-17T03:01:21.553Z,9.50
2017-10-17T03:03:50.452Z,9.50
2017-10-17T03:06:19.346Z,9.50
2017-10-17T03:08:48.230Z,9.40
2017-10-17T03:11:17.128Z,9.50
2017-10-17T03:13:47.779Z,9.40
2017-10-17T03:16:15.962Z,9.40
2017-10-17T03:18:44.095Z,9.40
2017-10-17T03:21:15.730Z,9.40
2017-10-17T03:23:45.594Z,9.40
2017-10-17T03:26:13.712Z,9.40
2017-10-17T03:28:51.765Z,9.30
2017-10-17T03:31:22.767Z,9.30
2017-10-17T03:33:52.420Z,9.30
2017-10-17T03:39:13.274Z,9.20
2017-10-17T03:41:42.108Z,9.30
2017-10-17T03:47:02.704Z,9.20
2017-10-17T03:49:45.993Z,9.20
2017-10-17T03:52:27.532Z,9.10
2017-10-17T03:54:55.695Z,9.10
2017-10-17T03:57:25.375Z,9.10
2017-10-17T04:00:08.731Z,9.00
2017-10-17T04:02:37.613Z,9.10
2017-10-17T04:05:08.111Z,9.10
2017-10-17T04:10:46.407Z,9.00
2017-10-17T04:16:13.790Z,9.10
2017-10-17T04:18:52.619Z,9.10
2017-10-17T04:21:39.439Z,9.10
2017-10-17T04:27:14.942Z,9.00
2017-10-17T04:32:37.058Z,9.00
2017-10-17T04:35:08.914Z,9.00
2017-10-17T04:37:41.518Z,9.00
2017-10-17T04:40:10.238Z,8.90
2017-10-17T04:42:50.330Z,9.00
2017-10-17T04:58:52.240Z,8.90
2017-10-17T05:01:20.357Z,8.90
2017-10-17T05:04:02.125Z,8.90
2017-10-17T05:06:30.251Z,8.80
2017-10-17T05:09:00.638Z,8.80
2017-10-17T05:11:28.760Z,8.80
2017-10-17T05:17:08.857Z,8.80
2017-10-17T05:19:45.418Z,8.80
2017-10-17T05:22:15.295Z,8.80
2017-10-17T05:24:49.679Z,8.70
2017-10-17T05:30:33.634Z,8.70
2017-10-17T05:33:15.535Z,8.70
2017-10-17T05:35:44.336Z,8.70
2017-10-17T05:38:12.520Z,8.70
2017-10-17T05:40:40.638Z,8.70
2017-10-17T05:43:09.039Z,8.80
2017-10-17T05:45:37.149Z,8.80
2017-10-17T05:48:06.096Z,8.80
2017-10-17T05:50:35.947Z,8.90
2017-10-17T05:53:04.064Z,8.90
2017-10-17T05:55:32.208Z,8.90
2017-10-17T05:58:00.332Z,8.90
2017-10-17T06:00:28.468Z,8.90
2017-10-17T06:02:57.344Z,9.00
2017-10-17T06:05:26.239Z,9.00
2017-10-17T06:07:55.112Z,9.00
2017-10-17T06:10:23.252Z,9.00
2017-10-17T06:12:52.282Z,9.00
2017-10-17T06:15:20.400Z,9.00
2017-10-17T06:17:48.540Z,9.00
2017-10-17T06:20:17.429Z,9.00
2017-10-17T06:22:45.557Z,9.00
2017-10-17T06:25:13.674Z,9.00
2017-10-17T06:27:42.593Z,9.10
2017-10-17T06:30:10.688Z,9.20
2017-10-17T06:32:38.809Z,9.20
2017-10-17T06:35:07.699Z,9.30
2017-10-17T06:37:36.884Z,9.30
2017-10-17T06:40:05.773Z,9.40
2017-10-17T06:42:34.657Z,9.50
2017-10-17T06:45:02.831Z,9.40
2017-10-17T06:47:30.939Z,9.50
2017-10-17T06:49:59.058Z,9.70
2017-10-17T06:52:27.192Z,9.80
2017-10-17T06:54:55.318Z,9.90
2017-10-17T06:57:23.439Z,10.00
2017-10-17T06:59:51.847Z,10.10
2017-10-17T07:02:19.993Z,10.20
2017-10-17T07:04:48.115Z,10.20
2017-10-17T07:07:17.013Z,10.40
2017-10-17T07:09:45.950Z,10.50
2017-10-17T07:12:14.087Z,10.50
2017-10-17T07:14:42.214Z,10.50
2017-10-17T07:17:10.347Z,10.60
2017-10-17T07:19:38.473Z,10.70
2017-10-17T07:22:06.613Z,10.80
2017-10-17T07:24:34.730Z,10.90
2017-10-17T07:27:02.851Z,11.00
2017-10-17T07:29:31.003Z,11.10
2017-10-17T07:31:59.916Z,11.30
2017-10-17T07:34:28.039Z,11.30
2017-10-17T07:36:56.163Z,11.40
2017-10-17T07:39:24.448Z,11.60
2017-10-17T07:41:52.561Z,11.80
2017-10-17T07:44:20.709Z,11.90
2017-10-17T07:46:48.839Z,12.00
2017-10-17T07:49:17.729Z,12.40
2017-10-17T07:51:46.643Z,12.50
2017-10-17T07:54:14.795Z,12.40
2017-10-17T07:56:42.932Z,12.60
2017-10-17T07:59:11.059Z,12.80
2017-10-17T08:01:39.208Z,12.90
2017-10-17T08:04:07.567Z,13.20
2017-10-17T08:06:36.524Z,13.40
2017-10-17T08:09:04.649Z,13.40
2017-10-17T08:11:33.587Z,13.60
2017-10-17T08:14:01.700Z,13.60
2017-10-17T08:16:30.619Z,13.90
2017-10-17T08:18:58.761Z,13.90
2017-10-17T08:21:27.652Z,14.20
2017-10-17T08:23:56.569Z,14.30
2017-10-17T08:26:24.690Z,14.30
2017-10-17T08:28:52.829Z,14.40
2017-10-17T08:31:20.958Z,14.50
2017-10-17T08:33:50.151Z,14.70
2017-10-17T08:36:19.064Z,14.70
2017-10-17T08:38:47.214Z,14.70
2017-10-17T08:41:16.132Z,14.90
2017-10-17T08:43:44.266Z,14.90
2017-10-17T08:46:12.416Z,14.90
2017-10-17T08:48:40.545Z,15.00
2017-10-17T08:51:08.703Z,15.10
2017-10-17T08:53:36.813Z,15.10
2017-10-17T08:56:05.302Z,15.20
2017-10-17T08:58:33.433Z,15.30
2017-10-17T09:01:02.348Z,15.60
2017-10-17T09:03:30.484Z,15.60
2017-10-17T09:05:59.380Z,15.80
2017-10-17T09:08:28.318Z,15.90
2017-10-17T09:10:56.468Z,15.90
2017-10-17T09:13:32.443Z,16.10
2017-10-17T09:16:00.583Z,16.20
2017-10-17T09:18:31.878Z,16.30
2017-10-17T09:21:06.173Z,16.40
2017-10-17T09:23:34.571Z,16.60
2017-10-17T09:26:02.722Z,16.70
2017-10-17T09:28:36.292Z,17.00
2017-10-17T09:31:05.196Z,17.30
2017-10-17T09:33:35.169Z,17.30
2017-10-17T09:36:08.891Z,17.40
2017-10-17T09:38:37.817Z,17.70
2017-10-17T09:41:05.959Z,17.70
2017-10-17T09:43:34.855Z,18.00
2017-10-17T09:46:03.009Z,18.00
2017-10-17T09:48:31.127Z,18.20
2017-10-17T09:50:59.281Z,18.30
2017-10-17T09:53:27.417Z,18.40
2017-10-17T09:55:55.566Z,18.60
2017-10-17T09:58:23.698Z,18.70
2017-10-17T10:00:51.827Z,18.80
2017-10-17T10:03:19.974Z,19.00
2017-10-17T10:05:48.135Z,19.10
2017-10-17T10:08:16.290Z,19.20
2017-10-17T10:10:44.519Z,19.40
2017-10-17T10:13:13.022Z,19.50
2017-10-17T10:15:41.915Z,19.70
2017-10-17T10:18:10.827Z,19.80
2017-10-17T10:20:38.966Z,19.80
2017-10-17T10:23:07.867Z,20.10
2017-10-17T10:25:36.768Z,20.20
2017-10-17T10:28:04.927Z,20.20
2017-10-17T10:30:33.069Z,20.30
2017-10-17T10:33:01.961Z,20.60
2017-10-17T10:35:30.119Z,20.50
2017-10-17T10:37:58.248Z,20.70
2017-10-17T10:40:27.202Z,21.00
2017-10-17T10:42:55.364Z,21.00
2017-10-17T10:45:23.612Z,21.20
2017-10-17T10:47:52.588Z,21.40
2017-10-17T10:50:21.475Z,21.50
2017-10-17T10:52:49.628Z,21.50
2017-10-17T10:55:18.597Z,21.70
2017-10-17T10:57:46.796Z,21.70
2017-10-17T11:00:14.956Z,21.80
2017-10-17T11:02:43.095Z,21.90
2017-10-17T11:05:11.215Z,22.00
2017-10-17T11:07:39.384Z,22.10
2017-10-17T11:10:07.718Z,22.20
2017-10-17T11:12:36.588Z,22.50
2017-10-17T11:15:04.737Z,22.50
2017-10-17T11:17:36.781Z,22.80
2017-10-17T11:20:04.922Z,22.80
2017-10-17T11:22:33.055Z,22.90
2017-10-17T11:25:01.961Z,22.90
2017-10-17T11:27:30.110Z,22.90
2017-10-17T11:30:01.228Z,23.20
2017-10-17T11:32:29.391Z,23.10
2017-10-17T11:34:57.540Z,23.40
2017-10-17T11:37:25.669Z,23.60
2017-10-17T11:39:54.627Z,24.30
2017-10-17T11:57:28.763Z,26.30
2017-10-17T11:59:57.653Z,27.10
2017-10-17T12:02:26.581Z,27.40
2017-10-17T12:04:54.703Z,27.40
2017-10-17T12:07:22.898Z,27.70
2017-10-17T12:09:51.829Z,28.50
2017-10-17T12:12:20.089Z,28.50
2017-10-17T12:14:48.231Z,28.80
2017-10-17T12:17:17.166Z,29.30
2017-10-17T12:19:45.328Z,29.30
2017-10-17T12:22:13.493Z,29.70
2017-10-17T12:24:42.391Z,30.20
2017-10-17T12:27:10.530Z,30.10
2017-10-17T12:29:39.455Z,30.60
2017-10-17T12:32:07.591Z,30.50
2017-10-17T12:34:36.692Z,30.70
2017-10-17T12:37:05.597Z,30.50
2017-10-17T12:39:33.752Z,30.50
2017-10-17T12:42:02.695Z,30.40
2017-10-17T12:44:30.844Z,30.30
2017-10-17T12:46:58.979Z,30.10
2017-10-17T12:49:27.883Z,30.00
2017-10-17T12:51:56.829Z,29.90
2017-10-17T12:54:24.994Z,29.90
2017-10-17T12:56:53.143Z,30.00
2017-10-17T12:59:21.306Z,30.00
2017-10-17T13:01:49.436Z,30.00
2017-10-17T13:04:17.585Z,30.00
2017-10-17T13:06:46.547Z,30.10
2017-10-17T13:09:15.476Z,30.20
2017-10-17T13:11:43.630Z,30.10
2017-10-17T13:14:11.763Z,30.30
2017-10-17T13:16:40.683Z,30.70
2017-10-17T13:19:08.822Z,30.70
2017-10-17T13:21:37.744Z,31.10
2017-10-17T13:24:05.948Z,31.10
2017-10-17T13:26:34.161Z,31.10
2017-10-17T13:29:02.263Z,31.00
2017-10-17T13:31:30.408Z,31.20
2017-10-17T13:33:59.312Z,31.80
2017-10-17T13:36:28.240Z,32.00
2017-10-17T13:38:56.349Z,32.00
2017-10-17T13:41:24.507Z,32.00
2017-10-17T13:43:52.652Z,32.10
2017-10-17T13:46:20.789Z,32.20
2017-10-17T13:48:48.934Z,31.50
2017-10-17T13:51:17.070Z,30.90
2017-10-17T13:53:45.207Z,30.10
2017-10-17T13:56:13.340Z,29.40
2017-10-17T13:58:41.495Z,28.40
2017-10-17T14:01:09.631Z,27.90
2017-10-17T14:03:37.763Z,27.40
2017-10-17T14:06:05.900Z,27.00
2017-10-17T14:08:34.031Z,26.70
2017-10-17T14:11:02.922Z,26.20
2017-10-17T14:13:31.060Z,26.20
2017-10-17T14:15:59.191Z,25.90
2017-10-17T14:18:27.324Z,25.50
2017-10-17T14:20:56.230Z,25.10
2017-10-17T14:23:25.116Z,24.90
2017-10-17T14:25:54.044Z,24.80
2017-10-17T14:28:22.184Z,24.70
2017-10-17T14:30:51.071Z,24.60
2017-10-17T14:33:19.994Z,24.50
2017-10-17T14:35:48.130Z,24.50
2017-10-17T14:38:17.038Z,24.30
2017-10-17T14:40:45.181Z,24.30
2017-10-17T14:43:14.104Z,24.10
2017-10-17T14:45:42.257Z,24.00
2017-10-17T14:48:10.483Z,23.90
2017-10-17T14:50:38.622Z,23.90
2017-10-17T14:53:06.772Z,23.90
2017-10-17T14:55:35.667Z,23.80
2017-10-17T14:58:04.564Z,23.80
2017-10-17T15:00:32.696Z,23.80
2017-10-17T15:03:00.870Z,23.90
2017-10-17T15:05:28.987Z,23.90
2017-10-17T15:07:57.120Z,23.80
2017-10-17T15:10:25.275Z,23.80
2017-10-17T15:12:53.451Z,23.70
2017-10-17T15:15:21.624Z,23.80
2017-10-17T15:17:50.466Z,23.70
2017-10-17T15:20:18.641Z,23.70
2017-10-17T15:22:46.775Z,23.60
2017-10-17T15:25:14.908Z,23.50
2017-10-17T15:27:43.057Z,23.40
2017-10-17T15:30:11.202Z,23.20
2017-10-17T15:32:40.118Z,22.80
2017-10-17T15:35:08.273Z,22.90
2017-10-17T15:37:37.161Z,22.40
2017-10-17T15:40:06.082Z,22.20
2017-10-17T15:42:34.252Z,22.20
2017-10-17T15:45:02.380Z,22.10
2017-10-17T15:47:30.545Z,21.90
2017-10-17T15:49:58.684Z,21.70
2017-10-17T15:52:26.821Z,21.50
2017-10-17T15:54:54.974Z,21.30
2017-10-17T15:57:23.103Z,21.10
2017-10-17T15:59:51.245Z,20.90
2017-10-17T16:02:19.391Z,20.70
2017-10-17T16:04:47.546Z,20.50
2017-10-17T16:07:15.686Z,20.40
2017-10-17T16:09:43.829Z,20.20
2017-10-17T16:12:11.992Z,20.10
2017-10-17T16:14:40.912Z,19.70
2017-10-17T16:17:09.051Z,19.70
2017-10-17T16:19:37.950Z,19.40
2017-10-17T16:22:06.853Z,19.20
2017-10-17T16:24:34.983Z,19.20
2017-10-17T16:27:03.118Z,19.00
2017-10-17T16:29:31.251Z,18.90
2017-10-17T16:32:00.159Z,18.60
2017-10-17T16:34:28.315Z,18.60
2017-10-17T16:36:57.201Z,18.40
2017-10-17T16:39:26.145Z,18.30
2017-10-17T16:41:54.287Z,18.30
2017-10-17T16:44:22.466Z,18.20
2017-10-17T16:46:50.623Z,18.10
2017-10-17T16:49:19.526Z,17.80
2017-10-17T16:51:47.652Z,17.80
2017-10-17T16:54:15.813Z,17.70
2017-10-17T16:56:43.954Z,17.70
2017-10-17T16:59:12.090Z,17.50
2017-10-17T17:01:41.004Z,17.40
2017-10-17T17:04:10.754Z,17.30
2017-10-17T17:06:38.942Z,17.30
2017-10-17T17:09:07.083Z,17.20
2017-10-17T17:11:35.206Z,17.10
2017-10-17T17:14:04.883Z,16.90
2017-10-17T17:16:35.033Z,16.80
2017-10-17T17:19:03.948Z,16.70
2017-10-17T17:21:32.322Z,16.70
2017-10-17T17:24:01.264Z,16.60
2017-10-17T17:26:29.404Z,16.60
2017-10-17T17:28:57.580Z,16.50
2017-10-17T17:31:25.742Z,16.40
2017-10-17T17:33:53.883Z,16.30
2017-10-17T17:36:22.817Z,16.20
2017-10-17T17:38:50.965Z,16.20
2017-10-17T17:41:19.190Z,16.10
2017-10-17T17:43:47.374Z,16.00
2017-10-17T17:46:15.517Z,16.00
2017-10-17T17:48:44.000Z,15.90
2017-10-17T17:51:12.145Z,15.90
2017-10-17T17:53:40.353Z,15.90
2017-10-17T17:56:08.467Z,15.80
2017-10-17T17:58:37.382Z,15.70
2017-10-17T18:01:05.535Z,15.70
2017-10-17T18:03:34.526Z,15.60
2017-10-17T18:06:03.470Z,15.60
2017-10-17T18:08:31.644Z,15.60
2017-10-17T18:10:59.778Z,15.50
2017-10-17T18:13:27.987Z,15.40
2017-10-17T18:15:56.154Z,15.30
2017-10-17T18:18:24.476Z,15.30
2017-10-17T18:20:53.583Z,15.30
2017-10-17T18:23:22.506Z,15.20
2017-10-17T18:25:50.683Z,15.20
2017-10-17T18:28:19.000Z,15.10
2017-10-17T18:30:47.129Z,15.10
2017-10-17T18:33:15.265Z,15.10
2017-10-17T18:35:45.330Z,15.10
2017-10-17T18:38:14.253Z,15.00
2017-10-17T18:40:42.409Z,15.00
2017-10-17T18:43:10.603Z,15.00
2017-10-17T18:45:38.764Z,14.90
2017-10-17T18:48:07.024Z,14.90
2017-10-17T18:50:35.178Z,14.90
2017-10-17T18:53:03.377Z,14.80
2017-10-17T18:55:31.526Z,14.80
2017-10-17T18:57:59.840Z,14.70
2017-10-17T19:00:28.849Z,14.60
2017-10-17T19:02:57.042Z,14.60
2017-10-17T19:05:25.180Z,14.50
2017-10-17T19:07:53.360Z,14.50
2017-10-17T19:10:21.537Z,14.50
2017-10-17T19:12:49.900Z,14.50
2017-10-17T19:15:18.105Z,14.40
2017-10-17T19:17:47.038Z,14.40
2017-10-17T19:20:15.203Z,14.30
2017-10-17T19:22:43.355Z,14.30
2017-10-17T19:25:11.705Z,14.30
2017-10-17T19:27:39.866Z,14.30
2017-10-17T19:30:08.840Z,14.20
2017-10-17T19:32:37.035Z,14.20
2017-10-17T19:35:06.008Z,14.10
2017-10-17T19:37:34.186Z,14.10
2017-10-17T19:40:02.401Z,14.10
2017-10-17T19:42:30.681Z,14.10
2017-10-17T19:44:59.618Z,14.00
2017-10-17T19:47:28.942Z,14.00
2017-10-17T19:49:57.103Z,14.00
2017-10-17T19:52:25.445Z,14.00
2017-10-17T19:54:54.921Z,13.90
2017-10-17T19:57:23.123Z,13.90
2017-10-17T19:59:51.375Z,13.90
2017-10-17T20:02:19.533Z,13.90
2017-10-17T20:04:48.471Z,13.70
2017-10-17T20:07:16.653Z,13.60
2017-10-17T20:09:44.885Z,13.70
2017-10-17T20:12:13.832Z,13.60
2017-10-17T20:14:42.133Z,13.60
2017-10-17T20:17:10.372Z,13.60
2017-10-17T20:19:38.542Z,13.50
2017-10-17T20:22:06.716Z,13.50
2017-10-17T20:24:34.964Z,13.50
2017-10-17T20:27:04.059Z,13.50
2017-10-17T20:29:32.270Z,13.40
2017-10-17T20:32:00.542Z,13.40
2017-10-17T20:34:29.555Z,13.40
2017-10-17T20:36:58.484Z,13.30
2017-10-17T20:39:26.726Z,13.30
2017-10-17T20:41:55.661Z,13.30
2017-10-17T20:44:23.824Z,13.30
2017-10-17T20:46:52.007Z,13.30
2017-10-17T20:49:20.193Z,13.30
2017-10-17T20:51:48.468Z,13.30
2017-10-17T20:54:16.778Z,13.20
2017-10-17T20:56:44.955Z,13.20
2017-10-17T20:59:13.118Z,13.10
2017-10-17T21:01:41.370Z,13.00
2017-10-17T21:04:09.669Z,13.00
2017-10-17T21:06:37.781Z,13.00
2017-10-17T21:09:05.912Z,12.90
2017-10-17T21:11:34.187Z,12.90
2017-10-17T21:14:02.349Z,12.80
2017-10-17T21:16:31.246Z,12.80
2017-10-17T21:18:59.375Z,12.70
2017-10-17T21:21:27.530Z,12.70
2017-10-17T21:23:56.606Z,12.60
2017-10-17T21:26:24.770Z,12.60
2017-10-17T21:28:52.907Z,12.60
2017-10-17T21:31:21.453Z,12.60
2017-10-17T21:33:49.621Z,12.50
2017-10-17T21:36:17.858Z,12.50
2017-10-17T21:38:46.001Z,12.40
2017-10-17T21:41:14.122Z,12.40
2017-10-17T21:43:42.275Z,12.30
2017-10-17T21:46:10.488Z,12.30
2017-10-17T21:48:39.416Z,12.10
2017-10-17T21:51:07.546Z,12.10
2017-10-17T21:53:36.610Z,12.00
2017-10-17T21:56:05.550Z,12.00
2017-10-17T21:58:33.681Z,12.00
2017-10-17T22:01:02.737Z,12.00
2017-10-17T22:03:30.864Z,12.00
2017-10-17T22:05:59.766Z,11.90
2017-10-17T22:08:27.892Z,11.90
2017-10-17T22:10:56.115Z,11.90
2017-10-17T22:13:24.300Z,11.90
2017-10-17T22:15:52.462Z,11.90
2017-10-17T22:18:20.615Z,11.80
2017-10-17T22:20:49.511Z,11.80
2017-10-17T22:23:18.410Z,11.80
2017-10-17T22:25:46.550Z,11.80
2017-10-17T22:28:14.689Z,11.80
2017-10-17T22:30:42.816Z,11.70
2017-10-17T22:33:11.713Z,11.60
2017-10-17T22:35:40.619Z,11.60
2017-10-17T22:38:08.779Z,11.60
2017-10-17T22:40:36.976Z,11.60
2017-10-17T22:43:06.026Z,11.60
2017-10-17T22:45:34.425Z,11.60
2017-10-17T22:48:03.327Z,11.50
2017-10-17T22:50:31.460Z,11.50
2017-10-17T22:52:59.583Z,11.50
2017-10-17T22:55:27.718Z,11.50
2017-10-17T22:57:56.619Z,11.40
2017-10-17T23:00:25.515Z,11.40
2017-10-17T23:02:54.411Z,11.40
2017-10-17T23:05:22.543Z,11.40
2017-10-17T23:07:50.673Z,11.30
2017-10-17T23:10:18.823Z,11.30
2017-10-17T23:12:47.725Z,11.20
2017-10-17T23:15:15.873Z,11.20
2017-10-17T23:17:56.588Z,11.20
2017-10-17T23:20:36.779Z,11.20
2017-10-17T23:23:04.914Z,11.10
2017-10-17T23:25:33.063Z,11.10
2017-10-17T23:28:01.187Z,11.10
2017-10-17T23:30:29.337Z,11.10
2017-10-17T23:32:57.467Z,11.10
2017-10-17T23:35:25.595Z,11.10
2017-10-17T23:37:53.737Z,11.10
2017-10-17T23:40:21.860Z,11.10
2017-10-17T23:42:50.619Z,11.10
2017-10-17T23:45:18.736Z,11.10
2017-10-17T23:47:47.659Z,11.00
2017-10-17T23:50:15.867Z,11.00
2017-10-17T23:52:44.271Z,11.00
2017-10-17T23:55:13.171Z,11.00
2017-10-17T23:57:42.066Z,10.90
